Becket, Massachusetts
Current Conditions -  °F | °C
As of 5:54 PM on Friday 31 Oct 2014 (Local Time) from KPSF Reporting Station
Overcast Overcast  
Wind Chill: 45°   Ceiling: 4100
Heat Index: 45°   Visibility: 10mi
Dew Point: 36°   Wind: 3mph
Humidity: 71%   Direction: NA
Pressure: 29.92"   Gusts: NA
Location:  42.33°N, 73.08°W
Report Text: KPSF 312154Z AUTO VRB03KT 10SM OVC041 07/02 A2992 RMK AO2 SLP137 T00720022
Loading
Personal Weather Stations






























Interactive Weather Map
Tropical Storm Tracking
New forecast layout! Learn more

10-Day Weather Forecast

Advertisements
Track Severe Weather on mobile